Time;durP1;ratioP1;P1;durP2;ratioP2;P2;SDS_P1;SDS_P2;PMS_P1;PMS_P2;Temp;Humidity;BMP_temperature;BMP_pressure;BME280_temperature;BME280_humidity;BME280_pressure;Samples;Min_cycle;Max_cycle;Signal;HPM_P1;HPM_P2
2022/04/01 00:00:11;;;;;;;4.00;1.38;;;4.30;58.60;;;;;;5096533;28;20043;-75
2022/04/01 00:02:38;;;;;;;3.70;1.70;;;4.40;58.10;;;;;;5078637;28;20024;-75
2022/04/01 00:05:05;;;;;;;7.68;2.00;;;4.40;57.50;;;;;;5077436;28;20170;-75
2022/04/01 00:07:32;;;;;;;1.80;1.40;;;4.40;57.40;;;;;;5076598;28;20040;-75
2022/04/01 00:09:57;;;;;;;5.15;1.50;;;4.30;57.40;;;;;;5077105;28;20024;-75
2022/04/01 00:12:23;;;;;;;2.47;1.48;;;4.40;56.90;;;;;;5077319;28;20025;-75
2022/04/01 00:14:49;;;;;;;3.72;1.92;;;4.40;56.60;;;;;;5077519;28;20056;-75
2022/04/01 00:17:14;;;;;;;5.28;1.27;;;4.40;56.40;;;;;;5077451;28;20048;-75
2022/04/01 00:19:40;;;;;;;5.00;1.45;;;4.40;56.60;;;;;;5085305;28;20040;-75
2022/04/01 00:22:06;;;;;;;4.68;2.08;;;4.30;55.70;;;;;;5076888;28;20028;-75
2022/04/01 00:24:32;;;;;;;4.32;1.85;;;4.30;56.50;;;;;;5077328;28;20025;-75
2022/04/01 00:26:58;;;;;;;1.83;1.27;;;4.30;56.10;;;;;;5076722;28;20059;-75
2022/04/01 00:29:24;;;;;;;4.05;1.52;;;4.30;56.00;;;;;;5075526;28;20057;-75
2022/04/01 00:31:58;;;;;;;2.35;1.70;;;4.20;55.60;;;;;;5077155;28;20104;-75
2022/04/01 00:34:33;;;;;;;3.20;1.48;;;4.20;56.10;;;;;;5077152;28;20028;-75
2022/04/01 00:37:01;;;;;;;3.80;1.70;;;4.20;56.00;;;;;;5095665;28;20032;-75
2022/04/01 00:39:31;;;;;;;1.88;1.10;;;4.20;55.60;;;;;;5095855;28;20016;-75
2022/04/01 00:41:59;;;;;;;4.30;1.75;;;4.20;56.10;;;;;;5079380;28;20025;-75
2022/04/01 00:44:28;;;;;;;5.95;1.65;;;4.20;56.20;;;;;;5076820;28;20082;-76
2022/04/01 00:47:00;;;;;;;3.40;1.60;;;4.20;55.70;;;;;;5078533;28;20387;-75
2022/04/01 00:49:27;;;;;;;5.78;2.10;;;4.20;55.50;;;;;;5096837;28;20435;-75
2022/04/01 00:51:55;;;;;;;2.72;1.73;;;4.20;55.10;;;;;;5097027;28;20016;-75
2022/04/01 00:54:21;;;;;;;1.77;1.65;;;4.20;55.10;;;;;;5095426;28;20084;-76
2022/04/01 00:56:47;;;;;;;2.67;1.50;;;4.20;55.10;;;;;;5095484;28;20060;-74
2022/04/01 00:59:13;;;;;;;3.60;1.55;;;4.20;55.10;;;;;;5096522;28;20039;-75
2022/04/01 01:01:47;;;;;;;5.53;1.70;;;4.20;56.10;;;;;;5095482;28;20024;-75
2022/04/01 01:04:14;;;;;;;2.60;1.42;;;4.20;55.70;;;;;;5096785;28;20086;-75
2022/04/01 01:06:43;;;;;;;3.05;1.80;;;4.10;55.70;;;;;;5096584;28;20028;-75
2022/04/01 01:09:09;;;;;;;4.60;1.83;;;4.10;55.50;;;;;;5094165;28;20035;-75
2022/04/01 01:11:36;;;;;;;1.65;1.38;;;4.10;55.80;;;;;;5091695;28;20060;-75
2022/04/01 01:14:03;;;;;;;2.05;1.60;;;4.10;55.80;;;;;;5076343;28;20041;-75
2022/04/01 01:16:29;;;;;;;2.90;1.63;;;4.10;56.40;;;;;;5076269;28;20398;-75
2022/04/01 01:19:10;;;;;;;1.95;1.52;;;4.20;56.60;;;;;;5082243;28;20039;-75
2022/04/01 01:21:37;;;;;;;1.88;1.55;;;4.10;56.90;;;;;;5096370;28;20023;-75
2022/04/01 01:24:05;;;;;;;1.88;1.58;;;4.10;57.20;;;;;;5095553;28;20083;-75
2022/04/01 01:26:33;;;;;;;4.32;1.50;;;4.00;57.30;;;;;;5080734;28;20076;-75
2022/04/01 01:28:59;;;;;;;1.95;1.60;;;4.00;57.30;;;;;;5094833;28;20062;-76
2022/04/01 01:31:26;;;;;;;1.75;1.50;;;4.00;58.00;;;;;;5096179;28;20024;-75
2022/04/01 01:33:54;;;;;;;5.68;2.20;;;4.00;57.70;;;;;;5094088;28;20053;-75
2022/04/01 01:36:20;;;;;;;3.47;1.60;;;3.90;58.40;;;;;;5087834;28;20025;-76
2022/04/01 01:38:46;;;;;;;3.10;1.65;;;4.10;58.60;;;;;;5074334;28;20039;-75
2022/04/01 01:41:11;;;;;;;2.65;1.83;;;4.00;58.60;;;;;;5074009;28;20020;-75
2022/04/01 01:43:38;;;;;;;2.38;1.40;;;4.00;58.30;;;;;;5086333;28;20032;-75
2022/04/01 01:46:05;;;;;;;2.08;1.55;;;4.10;57.50;;;;;;5095896;28;20550;-75
2022/04/01 01:48:30;;;;;;;2.78;1.50;;;4.10;58.40;;;;;;5095804;28;20027;-75
2022/04/01 01:56:25;;;;;;;1.95;1.50;;;4.00;58.50;;;;;;5091080;28;20043;-75
2022/04/01 01:58:50;;;;;;;2.10;1.58;;;3.90;57.80;;;;;;5093350;28;20016;-75
2022/04/01 02:01:16;;;;;;;2.75;1.88;;;4.00;57.40;;;;;;5095510;28;20497;-75
2022/04/01 02:03:42;;;;;;;1.52;1.42;;;3.90;57.20;;;;;;5080060;28;20021;-75
2022/04/01 02:06:08;;;;;;;2.25;1.90;;;3.90;57.00;;;;;;5075397;28;20103;-75
2022/04/01 02:08:33;;;;;;;3.38;1.60;;;3.80;57.30;;;;;;5075391;28;20056;-75
2022/04/01 02:10:59;;;;;;;2.92;1.60;;;3.90;57.80;;;;;;5075324;28;20231;-75
2022/04/01 02:13:29;;;;;;;2.58;1.52;;;3.90;57.60;;;;;;5088563;28;20036;-75
2022/04/01 02:15:55;;;;;;;3.28;1.70;;;3.90;56.80;;;;;;5094130;28;20032;-75
2022/04/01 02:18:22;;;;;;;2.38;1.65;;;3.90;57.20;;;;;;5073261;28;20056;-75
2022/04/01 02:20:48;;;;;;;6.72;1.70;;;3.90;57.20;;;;;;5074996;28;20020;-76
2022/04/01 02:23:16;;;;;;;2.70;1.75;;;3.80;56.50;;;;;;5075312;28;20016;-75
2022/04/01 02:25:42;;;;;;;4.53;1.38;;;3.90;57.10;;;;;;5090403;28;20054;-75
2022/04/01 02:28:09;;;;;;;1.75;1.35;;;3.90;56.90;;;;;;5074983;28;20052;-75
2022/04/01 02:30:35;;;;;;;5.90;1.90;;;3.90;57.50;;;;;;5075040;28;20044;-75
2022/04/01 02:33:02;;;;;;;2.08;1.30;;;3.80;56.50;;;;;;5074972;28;20071;-76
2022/04/01 02:35:28;;;;;;;2.17;1.35;;;3.80;57.70;;;;;;5077276;28;20019;-75
2022/04/01 02:37:54;;;;;;;4.65;1.48;;;3.90;57.90;;;;;;5082395;28;20033;-75
2022/04/01 02:40:20;;;;;;;3.15;1.35;;;3.90;58.30;;;;;;5074736;28;20028;-75
2022/04/01 02:42:46;;;;;;;1.88;1.60;;;3.90;57.70;;;;;;5074947;28;20031;-76
2022/04/01 02:45:13;;;;;;;2.83;1.42;;;4.00;57.80;;;;;;5076443;28;20020;-75
2022/04/01 02:47:39;;;;;;;3.63;1.50;;;3.90;58.30;;;;;;5087415;28;20020;-75
2022/04/01 02:50:06;;;;;;;2.20;1.50;;;3.80;58.20;;;;;;5097803;28;20027;-75
2022/04/01 02:52:32;;;;;;;5.18;1.42;;;3.90;58.30;;;;;;5097748;28;20065;-76
2022/04/01 02:54:58;;;;;;;3.30;1.60;;;3.80;58.50;;;;;;5098924;28;20081;-75
2022/04/01 02:57:23;;;;;;;3.92;1.55;;;3.90;58.70;;;;;;5093633;28;20029;-75
2022/04/01 02:59:49;;;;;;;2.88;1.67;;;3.80;58.50;;;;;;5086227;28;20094;-76
2022/04/01 03:02:15;;;;;;;5.25;1.77;;;3.80;59.30;;;;;;5099067;28;20016;-75
2022/04/01 03:04:42;;;;;;;6.55;1.65;;;3.80;59.30;;;;;;5087480;28;20029;-75
2022/04/01 03:07:07;;;;;;;1.95;1.60;;;3.70;58.90;;;;;;5078742;28;20499;-75
2022/04/01 03:09:33;;;;;;;4.93;1.48;;;3.70;59.50;;;;;;5076956;28;20914;-75
2022/04/01 03:12:00;;;;;;;5.47;1.73;;;3.70;60.10;;;;;;5077107;28;20025;-75
2022/04/01 03:14:26;;;;;;;1.80;1.55;;;3.70;59.50;;;;;;5078599;28;20017;-76
2022/04/01 03:16:52;;;;;;;2.38;1.63;;;3.70;60.00;;;;;;5091322;28;20028;-75
2022/04/01 03:19:18;;;;;;;4.75;1.60;;;3.70;60.30;;;;;;5098727;28;20024;-75
2022/04/01 03:21:45;;;;;;;5.72;1.67;;;3.70;61.10;;;;;;5097339;28;20031;-75
2022/04/01 03:24:11;;;;;;;2.13;1.50;;;3.70;61.10;;;;;;5096085;28;20020;-75
2022/04/01 03:26:38;;;;;;;1.95;1.40;;;3.80;61.00;;;;;;5078255;28;20017;-75
2022/04/01 03:29:04;;;;;;;2.95;1.40;;;3.70;62.20;;;;;;5079292;28;20675;-75
2022/04/01 03:31:30;;;;;;;3.00;1.70;;;3.60;62.30;;;;;;5098527;28;20448;-76
2022/04/01 03:33:56;;;;;;;1.80;1.40;;;3.60;62.00;;;;;;5091552;28;20041;-75
2022/04/01 03:36:22;;;;;;;6.57;1.50;;;3.60;63.10;;;;;;5078214;28;20029;-75
2022/04/01 03:38:47;;;;;;;3.42;1.42;;;3.50;63.30;;;;;;5076648;28;20028;-75
2022/04/01 03:41:13;;;;;;;1.85;1.20;;;3.50;63.60;;;;;;5092658;28;20037;-75
2022/04/01 03:43:40;;;;;;;3.05;1.33;;;3.40;63.80;;;;;;5096935;28;20028;-75
2022/04/01 03:46:13;;;;;;;3.35;1.80;;;3.40;64.40;;;;;;5098009;28;20016;-75
2022/04/01 03:49:02;;;;;;;3.10;1.77;;;3.30;63.60;;;;;;5095343;28;20394;-75
2022/04/01 03:51:30;;;;;;;1.55;1.45;;;3.30;64.30;;;;;;5077961;28;20036;-75
2022/04/01 03:53:58;;;;;;;6.57;1.83;;;3.20;65.60;;;;;;5077775;28;20089;-76
2022/04/01 03:56:29;;;;;;;5.70;1.90;;;3.30;65.30;;;;;;5076912;28;20028;-75
2022/04/01 03:59:02;;;;;;;3.30;1.60;;;3.20;65.50;;;;;;5078813;28;20036;-75
2022/04/01 04:01:28;;;;;;;2.00;1.65;;;3.20;65.50;;;;;;5081506;28;20130;-75
2022/04/01 04:03:56;;;;;;;4.18;1.65;;;3.20;65.10;;;;;;5077654;28;20024;-76
2022/04/01 04:06:25;;;;;;;1.75;1.40;;;3.10;65.10;;;;;;5075938;28;20722;-76
2022/04/01 04:08:58;;;;;;;2.00;1.60;;;3.10;65.90;;;;;;5077807;28;20043;-75
2022/04/01 04:11:25;;;;;;;2.28;1.52;;;3.10;65.30;;;;;;5076184;28;20029;-75
2022/04/01 04:13:53;;;;;;;2.28;1.67;;;3.10;65.60;;;;;;5077362;28;20459;-75
2022/04/01 04:16:30;;;;;;;5.57;1.70;;;3.10;65.90;;;;;;5084850;28;20081;-75
2022/04/01 04:19:10;;;;;;;4.05;1.92;;;3.00;64.70;;;;;;5094437;28;20035;-74
2022/04/01 04:21:49;;;;;;;2.40;1.60;;;3.10;64.30;;;;;;5094021;28;20016;-76
2022/04/01 04:24:18;;;;;;;5.68;1.85;;;3.20;64.30;;;;;;5094104;28;20508;-76
2022/04/01 04:26:48;;;;;;;3.45;1.58;;;3.20;63.70;;;;;;5075753;28;20063;-76
2022/04/01 04:29:16;;;;;;;2.15;1.70;;;3.20;63.90;;;;;;5087212;28;20029;-75
2022/04/01 04:32:03;;;;;;;2.85;1.90;;;3.30;63.60;;;;;;5077134;28;20119;-76
2022/04/01 04:34:37;;;;;;;3.38;1.52;;;3.20;63.60;;;;;;5075832;28;20025;-75
2022/04/01 04:37:09;;;;;;;3.42;2.10;;;3.20;64.00;;;;;;5077116;28;20035;-74
2022/04/01 04:39:36;;;;;;;2.83;1.70;;;3.30;63.80;;;;;;5076699;28;20107;-75
2022/04/01 04:42:03;;;;;;;5.70;1.92;;;3.30;64.00;;;;;;5076833;28;20067;-75
2022/04/01 04:44:30;;;;;;;2.95;1.60;;;3.30;64.20;;;;;;5076911;28;20020;-75
2022/04/01 04:46:57;;;;;;;1.83;1.63;;;3.20;64.40;;;;;;5082314;28;20047;-75
2022/04/01 04:49:24;;;;;;;2.38;1.80;;;3.30;64.30;;;;;;5095677;28;20549;-75
2022/04/01 04:51:52;;;;;;;2.50;2.30;;;3.30;63.90;;;;;;5077590;28;20033;-77
2022/04/01 05:17:07;;;;;;;2.35;1.75;;;2.40;68.50;;;;;;5034424;28;20405;-83
2022/04/01 05:19:36;;;;;;;2.67;2.13;;;2.40;68.70;;;;;;5034274;28;20096;-78
2022/04/01 05:22:09;;;;;;;4.38;2.15;;;2.70;67.80;;;;;;5047498;28;20022;-78
2022/04/01 05:24:48;;;;;;;7.97;2.10;;;3.00;66.70;;;;;;5030921;28;20034;-77
2022/04/01 05:27:32;;;;;;;2.33;1.98;;;3.30;66.00;;;;;;5042921;28;20021;-79
2022/04/01 05:30:16;;;;;;;10.70;2.30;;;3.50;64.90;;;;;;5038346;28;20041;-82
2022/04/01 05:33:00;;;;;;;3.10;2.28;;;3.60;64.20;;;;;;5029248;28;20583;-81
2022/04/01 05:35:29;;;;;;;2.67;1.80;;;3.70;63.80;;;;;;5031760;28;20040;-82
2022/04/01 05:37:57;;;;;;;3.30;1.80;;;3.70;63.60;;;;;;5044568;28;20194;-82
2022/04/01 05:40:23;;;;;;;5.03;1.95;;;3.70;63.40;;;;;;5049895;28;20029;-77
2022/04/01 05:42:50;;;;;;;3.05;1.85;;;3.80;63.30;;;;;;5050201;28;20043;-82
2022/04/01 05:45:18;;;;;;;5.65;2.10;;;3.90;62.80;;;;;;5042056;28;20033;-81
2022/04/01 05:47:45;;;;;;;5.82;2.30;;;3.80;62.40;;;;;;5039322;28;20060;-81
2022/04/01 05:50:11;;;;;;;4.28;1.95;;;3.80;61.90;;;;;;5044611;28;20033;-82
2022/04/01 05:52:37;;;;;;;4.75;2.13;;;3.90;61.60;;;;;;5030639;28;20141;-81
2022/04/01 05:55:04;;;;;;;2.65;1.80;;;3.90;61.20;;;;;;5030442;28;20076;-81
2022/04/01 05:57:29;;;;;;;3.58;1.98;;;4.00;60.90;;;;;;5031969;28;20056;-81
2022/04/01 05:59:55;;;;;;;1.70;1.60;;;4.10;60.30;;;;;;5039739;28;20033;-82
2022/04/01 06:02:42;;;;;;;3.08;1.75;;;4.20;59.30;;;;;;5050356;28;20047;-80
2022/04/01 06:05:22;;;;;;;4.38;1.88;;;4.20;59.70;;;;;;5051598;28;20037;-80
2022/04/01 06:08:00;;;;;;;3.25;1.90;;;4.20;60.10;;;;;;5041604;28;20037;-78
2022/04/01 06:10:36;;;;;;;3.17;1.60;;;4.20;60.00;;;;;;5029917;28;20119;-79
2022/04/01 06:13:41;;;;;;;6.05;2.20;;;4.20;59.10;;;;;;5030414;28;20097;-80
2022/04/01 06:16:45;;;;;;;2.28;1.40;;;4.30;59.10;;;;;;5031400;28;20054;-80
2022/04/01 06:19:17;;;;;;;2.17;1.42;;;4.30;58.30;;;;;;5031345;28;20033;-79
2022/04/01 06:21:50;;;;;;;2.92;1.70;;;4.30;58.60;;;;;;5031339;28;20025;-80
2022/04/01 06:24:26;;;;;;;5.10;2.08;;;4.30;58.60;;;;;;5031506;28;20022;-78
2022/04/01 06:26:58;;;;;;;2.70;1.70;;;4.30;58.00;;;;;;5026099;28;20036;-79
2022/04/01 06:29:34;;;;;;;6.30;2.05;;;4.40;58.20;;;;;;5018148;28;20033;-79
2022/04/01 06:32:26;;;;;;;2.70;1.85;;;4.40;57.70;;;;;;5018238;28;20132;-80
2022/04/01 06:35:11;;;;;;;1.60;1.50;;;4.50;57.90;;;;;;5018305;28;20026;-79
2022/04/01 06:37:42;;;;;;;4.15;1.80;;;4.60;57.40;;;;;;5016733;28;20152;-79
2022/04/01 06:40:12;;;;;;;2.10;1.42;;;4.70;57.10;;;;;;5017850;28;20014;-79
2022/04/01 06:42:40;;;;;;;1.58;1.45;;;4.70;57.40;;;;;;5033867;28;20152;-79
2022/04/01 06:45:10;;;;;;;3.78;1.80;;;4.70;57.60;;;;;;5037670;28;20025;-79
2022/04/01 06:47:39;;;;;;;2.35;1.60;;;4.80;57.60;;;;;;5035933;28;20492;-79
2022/04/01 06:50:05;;;;;;;3.65;1.90;;;4.90;57.70;;;;;;5032123;28;20026;-79
2022/04/01 06:52:31;;;;;;;5.18;2.78;;;4.90;57.60;;;;;;5017984;28;20516;-79
2022/04/01 06:54:57;;;;;;;5.60;2.70;;;4.90;57.50;;;;;;5017361;28;20030;-79
2022/04/01 06:57:24;;;;;;;6.55;3.65;;;5.00;57.80;;;;;;5018140;28;20518;-79
2022/04/01 06:59:50;;;;;;;5.95;2.47;;;5.10;57.40;;;;;;5024842;28;20067;-79
2022/04/01 07:02:16;;;;;;;4.25;2.60;;;5.20;57.10;;;;;;5036865;28;20030;-79
2022/04/01 07:04:42;;;;;;;3.17;1.58;;;5.30;56.90;;;;;;5035812;28;20392;-79
2022/04/01 07:07:08;;;;;;;4.68;1.73;;;5.40;55.90;;;;;;5026981;28;20040;-80
2022/04/01 07:09:36;;;;;;;3.10;1.98;;;5.50;56.10;;;;;;5017262;28;20052;-79
2022/04/01 07:12:03;;;;;;;5.70;1.80;;;5.70;55.20;;;;;;5030072;28;20026;-79
2022/04/01 07:14:31;;;;;;;1.55;1.40;;;6.30;53.10;;;;;;5037280;28;20018;-80
2022/04/01 07:16:57;;;;;;;3.38;1.35;;;7.00;51.00;;;;;;5033758;28;20048;-79
2022/04/01 07:19:23;;;;;;;6.57;1.55;;;7.70;49.00;;;;;;5017136;28;20026;-80
2022/04/01 07:21:48;;;;;;;3.55;1.45;;;7.50;48.10;;;;;;5017235;28;20408;-80
2022/04/01 07:24:14;;;;;;;2.35;1.40;;;8.00;48.30;;;;;;5016092;28;20030;-80
2022/04/01 07:26:40;;;;;;;4.28;1.40;;;8.20;47.40;;;;;;5015230;28;20042;-80
2022/04/01 07:29:06;;;;;;;4.15;1.77;;;8.70;46.10;;;;;;5016803;28;20022;-80
2022/04/01 07:34:25;;;;;;;4.10;1.35;;;8.80;45.30;;;;;;5017062;28;20037;-80
2022/04/01 07:36:51;;;;;;;2.65;1.00;;;7.90;46.00;;;;;;5016958;28;20022;-80
2022/04/01 07:39:17;;;;;;;4.57;1.40;;;9.50;44.00;;;;;;5014292;28;20022;-80
2022/04/01 07:41:42;;;;;;;3.65;1.42;;;8.80;44.00;;;;;;5016881;28;20563;-80
2022/04/01 07:44:08;;;;;;;2.53;1.23;;;9.50;43.50;;;;;;5016420;28;20061;-80
2022/04/01 07:46:34;;;;;;;4.63;1.10;;;9.60;43.30;;;;;;5015167;28;20042;-80
2022/04/01 07:49:00;;;;;;;2.35;0.82;;;10.80;40.00;;;;;;5028042;28;20034;-80
2022/04/01 07:51:25;;;;;;;4.55;1.13;;;9.50;41.70;;;;;;5016736;28;20084;-80
2022/04/01 07:53:51;;;;;;;3.15;1.00;;;8.50;43.30;;;;;;5016531;28;20032;-80
2022/04/01 07:56:16;;;;;;;4.75;1.85;;;8.70;44.00;;;;;;5016490;28;20032;-80
2022/04/01 07:58:42;;;;;;;8.40;5.05;;;10.50;41.10;;;;;;5015093;28;20801;-80
2022/04/01 08:01:08;;;;;;;3.88;0.98;;;12.20;37.30;;;;;;5035313;28;20025;-80
2022/04/01 08:03:34;;;;;;;5.95;1.30;;;11.20;38.30;;;;;;5036045;28;20136;-80
2022/04/01 08:05:59;;;;;;;4.35;1.83;;;10.90;39.80;;;;;;5034120;28;20039;-80
2022/04/01 08:08:25;;;;;;;3.00;1.25;;;13.10;37.00;;;;;;5034805;28;20281;-81
2022/04/01 08:10:51;;;;;;;3.20;1.10;;;14.30;33.30;;;;;;5034880;28;20028;-80
2022/04/01 08:13:17;;;;;;;2.80;1.00;;;16.20;31.20;;;;;;5016489;28;20018;-81
2022/04/01 08:15:43;;;;;;;5.63;1.23;;;16.80;28.50;;;;;;5015980;28;20104;-81
2022/04/01 08:18:09;;;;;;;3.20;1.30;;;17.70;28.30;;;;;;5016002;28;20025;-80
2022/04/01 08:20:34;;;;;;;3.88;1.00;;;17.40;27.80;;;;;;5015992;28;20026;-80
2022/04/01 08:23:00;;;;;;;3.63;0.93;;;17.70;28.00;;;;;;5027004;28;20050;-80
2022/04/01 08:25:26;;;;;;;2.72;1.00;;;18.40;27.40;;;;;;5015967;28;20567;-80
2022/04/01 08:27:51;;;;;;;3.60;1.30;;;19.90;25.80;;;;;;5014617;28;20056;-80
2022/04/01 08:30:17;;;;;;;4.38;1.00;;;18.50;25.70;;;;;;5014939;28;20033;-80
2022/04/01 08:32:43;;;;;;;2.67;0.95;;;18.50;26.10;;;;;;5016283;28;20033;-80
2022/04/01 08:35:09;;;;;;;4.85;1.20;;;19.10;25.60;;;;;;5015871;28;20038;-81
2022/04/01 08:37:35;;;;;;;2.55;1.08;;;19.70;25.80;;;;;;5015605;28;20091;-81
2022/04/01 08:40:00;;;;;;;6.03;1.38;;;20.50;24.30;;;;;;5015460;28;20138;-81
2022/04/01 08:42:29;;;;;;;3.17;1.13;;;19.80;24.30;;;;;;5014457;28;20088;-81
2022/04/01 08:44:55;;;;;;;2.60;1.00;;;19.10;26.10;;;;;;5015807;28;20030;-81
2022/04/01 08:47:21;;;;;;;5.32;1.00;;;17.50;25.80;;;;;;5021233;28;20164;-80
2022/04/01 08:49:47;;;;;;;2.95;1.08;;;18.40;26.50;;;;;;5035122;28;20083;-80
2022/04/01 08:52:12;;;;;;;4.28;1.00;;;17.30;27.30;;;;;;5035505;28;20104;-80
2022/04/01 08:54:38;;;;;;;3.13;1.25;;;17.30;26.80;;;;;;5020089;28;20087;-80
2022/04/01 08:57:05;;;;;;;4.78;1.23;;;18.00;27.00;;;;;;5015021;28;20614;-80
2022/04/01 08:59:31;;;;;;;6.82;1.10;;;17.80;26.50;;;;;;5021553;28;20021;-80
2022/04/01 09:02:15;;;;;;;3.58;1.27;;;16.80;27.00;;;;;;5034084;28;20030;-80
2022/04/01 09:04:41;;;;;;;4.90;1.13;;;17.30;27.70;;;;;;5035196;28;20025;-79
2022/04/01 09:07:12;;;;;;;7.15;1.67;;;17.00;26.80;;;;;;5035464;28;20060;-79
2022/04/01 09:09:38;;;;;;;3.78;1.20;;;17.00;27.70;;;;;;5035208;28;20026;-79
2022/04/01 09:12:16;;;;;;;3.30;1.15;;;16.30;27.20;;;;;;5031086;28;20029;-79
2022/04/01 09:14:53;;;;;;;5.20;1.55;;;15.90;27.60;;;;;;5033686;28;20116;-79
2022/04/01 09:17:18;;;;;;;2.47;1.27;;;16.70;26.70;;;;;;5032271;28;20021;-79
2022/04/01 09:19:44;;;;;;;5.55;1.95;;;16.30;28.00;;;;;;5033642;28;20030;-79
2022/04/01 09:22:21;;;;;;;4.47;1.10;;;16.30;27.10;;;;;;5019912;28;20435;-79
2022/04/01 09:24:56;;;;;;;5.07;1.33;;;15.20;29.40;;;;;;5047129;28;20033;-79
2022/04/01 09:27:50;;;;;;;4.65;1.45;;;14.70;30.40;;;;;;5015506;28;20135;-79
2022/04/01 09:30:22;;;;;;;5.38;1.45;;;14.70;29.90;;;;;;5015353;28;20033;-79
2022/04/01 09:32:51;;;;;;;5.25;1.42;;;14.40;30.90;;;;;;5018225;28;20026;-79
2022/04/01 09:35:18;;;;;;;6.15;1.38;;;12.80;32.90;;;;;;5035044;28;20032;-79
2022/04/01 09:37:49;;;;;;;8.77;1.13;;;13.60;31.00;;;;;;5034868;28;20053;-79
2022/04/01 09:40:18;;;;;;;5.50;1.00;;;12.80;33.00;;;;;;5034839;28;20030;-79
2022/04/01 09:43:10;;;;;;;11.55;1.67;;;11.60;34.70;;;;;;5027659;28;20018;-78
2022/04/01 09:45:36;;;;;;;3.65;1.23;;;10.80;36.40;;;;;;5015428;28;20041;-79
2022/04/01 09:48:06;;;;;;;3.28;1.20;;;13.00;34.70;;;;;;5034913;28;20050;-79
2022/04/01 09:50:37;;;;;;;4.80;1.00;;;14.10;31.60;;;;;;5034979;28;20032;-79
2022/04/01 09:53:21;;;;;;;4.63;1.52;;;15.80;29.90;;;;;;5033496;28;20500;-80
2022/04/01 09:55:49;;;;;;;2.30;1.38;;;13.90;31.00;;;;;;5014704;28;20113;-79
2022/04/01 09:58:17;;;;;;;5.85;1.40;;;12.90;33.50;;;;;;5015055;28;20507;-79
2022/04/01 10:00:43;;;;;;;2.17;0.73;;;13.80;32.40;;;;;;5029449;28;20507;-79
2022/04/01 10:03:10;;;;;;;6.45;2.08;;;13.60;32.40;;;;;;5036115;28;20025;-82
2022/04/01 10:05:37;;;;;;;6.72;1.80;;;12.60;35.00;;;;;;5021025;28;20038;-80
2022/04/01 10:08:05;;;;;;;2.55;1.17;;;12.50;35.20;;;;;;5016999;28;20025;-80
2022/04/01 10:10:32;;;;;;;5.45;1.45;;;11.80;36.20;;;;;;5018518;28;20091;-80
2022/04/01 10:13:01;;;;;;;4.70;1.25;;;11.50;38.30;;;;;;5036469;28;20057;-79
2022/04/01 10:15:29;;;;;;;6.25;1.27;;;11.30;38.20;;;;;;5018536;28;20038;-80
2022/04/01 10:17:57;;;;;;;3.42;1.20;;;10.40;39.50;;;;;;5017277;28;20036;-79
2022/04/01 10:20:33;;;;;;;3.75;1.95;;;10.40;39.20;;;;;;5017240;28;20028;-80
2022/04/01 10:23:03;;;;;;;4.15;1.75;;;11.00;38.70;;;;;;5016944;28;20030;-80
2022/04/01 10:25:37;;;;;;;3.90;1.58;;;11.70;36.80;;;;;;5017087;28;20061;-80
2022/04/01 10:28:04;;;;;;;1.52;0.82;;;12.10;35.90;;;;;;5017925;28;20034;-79
2022/04/01 10:30:32;;;;;;;5.75;1.38;;;11.70;34.30;;;;;;5018296;28;20025;-79
2022/04/01 10:32:59;;;;;;;5.40;1.17;;;11.10;36.20;;;;;;5016812;28;20457;-79
2022/04/01 10:35:29;;;;;;;4.13;1.40;;;11.10;36.80;;;;;;5018065;28;20030;-79
2022/04/01 10:38:15;;;;;;;3.65;1.10;;;10.40;38.20;;;;;;5016562;28;20026;-79
2022/04/01 10:40:46;;;;;;;5.60;1.05;;;10.90;37.70;;;;;;5017961;28;20050;-79
2022/04/01 10:43:22;;;;;;;2.85;1.08;;;11.00;36.10;;;;;;5017750;28;20939;-79
2022/04/01 10:46:04;;;;;;;2.72;1.13;;;10.90;36.20;;;;;;5017766;28;20451;-79
2022/04/01 10:51:39;;;;;;;5.03;1.60;;;11.10;35.60;;;;;;5036660;28;20056;-79
2022/04/01 10:54:14;;;;;;;3.47;0.82;;;10.70;35.90;;;;;;5036395;28;20112;-79
2022/04/01 10:57:05;;;;;;;2.65;1.10;;;10.70;36.50;;;;;;5037366;28;20025;-79
2022/04/01 10:59:50;;;;;;;4.25;1.30;;;10.50;37.80;;;;;;5034846;28;20136;-79
2022/04/01 11:02:20;;;;;;;2.53;1.23;;;10.60;37.00;;;;;;5037078;28;20641;-78
2022/04/01 11:04:47;;;;;;;;;;;10.30;37.10;;;;;;5024455;28;20057;-80
2022/04/01 11:07:22;;;;;;;6.38;1.23;;;10.40;37.70;;;;;;5017384;28;20000;-75
2022/04/01 11:10:00;;;;;;;1.17;0.90;;;10.70;38.40;;;;;;5017589;28;20061;-75
2022/04/01 11:12:31;;;;;;;3.45;1.17;;;11.10;37.90;;;;;;5031958;28;20064;-76
2022/04/01 11:15:00;;;;;;;3.08;1.00;;;10.80;36.80;;;;;;5038784;28;20042;-78
2022/04/01 11:17:35;;;;;;;4.00;1.70;;;10.20;36.70;;;;;;5037186;28;20028;-77
2022/04/01 11:20:18;;;;;;;4.03;1.60;;;9.80;38.00;;;;;;5036282;28;20104;-77
2022/04/01 11:22:45;;;;;;;4.75;1.20;;;10.10;38.90;;;;;;5023582;28;20036;-79
2022/04/01 11:25:33;;;;;;;3.15;1.30;;;10.20;38.30;;;;;;5031243;28;20094;-80
2022/04/01 11:28:05;;;;;;;4.63;1.30;;;9.80;38.70;;;;;;5032955;28;20056;-79
2022/04/01 11:30:40;;;;;;;2.10;1.20;;;10.10;39.50;;;;;;5038916;28;20025;-79
2022/04/01 11:33:18;;;;;;;4.63;1.27;;;10.20;39.10;;;;;;5032501;28;20017;-80
2022/04/01 11:35:45;;;;;;;4.05;1.33;;;10.00;38.60;;;;;;5032502;28;20033;-79
2022/04/01 11:38:15;;;;;;;3.13;1.30;;;10.10;39.10;;;;;;5033806;28;20056;-79
2022/04/01 11:40:43;;;;;;;3.10;1.25;;;10.00;39.80;;;;;;5029169;28;20029;-81
2022/04/01 11:43:14;;;;;;;2.65;1.45;;;10.30;38.60;;;;;;5033844;28;20379;-81
2022/04/01 11:45:49;;;;;;;3.97;1.10;;;10.60;38.20;;;;;;5030895;28;20705;-81
2022/04/01 11:48:18;;;;;;;3.67;0.90;;;10.90;38.80;;;;;;5035506;28;20716;-81
2022/04/01 11:50:47;;;;;;;4.17;1.43;;;10.90;38.50;;;;;;5035790;28;20468;-81
2022/04/01 11:53:26;;;;;;;5.13;1.50;;;11.00;37.80;;;;;;5032371;28;20565;-81
2022/04/01 11:55:53;;;;;;;2.28;1.33;;;10.60;38.50;;;;;;5034493;28;20124;-82
2022/04/01 11:58:20;;;;;;;5.72;2.45;;;10.40;37.70;;;;;;5031242;28;20867;-81
2022/04/01 12:00:48;;;;;;;4.47;1.65;;;10.40;37.80;;;;;;5034579;28;20055;-81
2022/04/01 12:03:15;;;;;;;4.82;1.77;;;10.20;36.50;;;;;;5036276;28;20028;-81
2022/04/01 12:05:40;;;;;;;4.90;1.85;;;10.90;37.00;;;;;;5035370;28;20364;-80
2022/04/01 12:10:55;;;;;;;5.18;1.30;;;10.80;37.50;;;;;;5033064;28;20114;-79
2022/04/01 12:13:23;;;;;;;2.75;1.27;;;10.60;37.80;;;;;;5031045;28;20038;-84
2022/04/01 12:15:49;;;;;;;3.20;1.85;;;10.50;38.30;;;;;;5031403;28;20053;-80
2022/04/01 12:18:17;;;;;;;4.80;1.88;;;9.90;40.80;;;;;;5031051;28;20024;-80
2022/04/01 12:20:45;;;;;;;5.50;2.22;;;9.70;41.60;;;;;;5031353;28;20036;-80
2022/04/01 12:23:11;;;;;;;4.95;1.75;;;9.90;41.20;;;;;;5033310;28;20053;-80
2022/04/01 12:25:39;;;;;;;3.90;2.15;;;10.20;40.60;;;;;;5033711;28;20025;-81
2022/04/01 12:28:07;;;;;;;4.38;1.63;;;10.50;40.30;;;;;;5034514;28;20099;-80
2022/04/01 12:30:33;;;;;;;5.32;1.40;;;10.10;40.10;;;;;;5032742;28;20037;-80
2022/04/01 12:33:24;;;;;;;4.40;1.90;;;9.80;41.30;;;;;;5034217;28;20026;-80
2022/04/01 12:35:59;;;;;;;2.78;1.50;;;10.10;41.70;;;;;;5033173;28;20068;-81
2022/04/01 12:38:26;;;;;;;6.18;1.92;;;10.20;42.20;;;;;;5033492;28;20128;-80
2022/04/01 12:41:01;;;;;;;4.90;1.92;;;10.50;41.30;;;;;;5034366;28;20109;-81
2022/04/01 12:43:40;;;;;;;3.92;1.50;;;10.00;41.90;;;;;;5031859;28;20053;-80
2022/04/01 12:46:15;;;;;;;5.63;1.98;;;9.10;46.00;;;;;;5033630;28;20014;-80
2022/04/01 12:49:00;;;;;;;3.22;1.80;;;9.10;48.20;;;;;;5032855;28;20031;-80
2022/04/01 12:51:31;;;;;;;4.63;1.90;;;8.70;48.40;;;;;;5032452;28;20053;-80
2022/04/01 12:54:06;;;;;;;5.78;2.03;;;9.10;48.60;;;;;;5031881;28;20029;-80
2022/04/01 12:56:37;;;;;;;3.80;1.50;;;9.30;45.80;;;;;;5032018;28;20393;-80
2022/04/01 12:59:02;;;;;;;4.90;2.00;;;9.70;44.40;;;;;;5031964;28;20028;-80
2022/04/01 13:01:29;;;;;;;4.95;1.95;;;10.00;41.80;;;;;;5033134;28;20108;-80
2022/04/01 13:03:57;;;;;;;5.38;1.75;;;10.20;41.20;;;;;;5023026;28;20021;-80
2022/04/01 13:06:27;;;;;;;5.43;1.95;;;10.70;41.80;;;;;;5025940;28;20518;-80
2022/04/01 13:08:58;;;;;;;5.07;1.48;;;10.60;40.90;;;;;;5032544;28;20073;-80
2022/04/01 13:11:32;;;;;;;;;;;10.80;41.00;;;;;;5022132;28;20182;-80
2022/04/01 13:13:58;;;;;;;4.38;1.70;;;10.60;39.50;;;;;;5022906;28;19913;-81
2022/04/01 13:16:23;;;;;;;4.05;1.92;;;10.50;40.40;;;;;;5015223;28;20534;-83
2022/04/01 13:18:49;;;;;;;3.10;1.63;;;11.10;40.30;;;;;;5014791;28;20029;-80
2022/04/01 13:21:16;;;;;;;3.80;2.05;;;10.60;41.60;;;;;;5017755;28;20368;-79
2022/04/01 13:23:42;;;;;;;5.43;2.53;;;9.40;49.70;;;;;;5014359;28;20101;-80
2022/04/01 13:26:08;;;;;;;6.78;2.40;;;8.80;51.50;;;;;;5013196;28;20060;-80
2022/04/01 13:28:33;;;;;;;5.63;2.40;;;8.50;52.50;;;;;;5022517;28;20041;-79
2022/04/01 13:31:05;;;;;;;5.90;2.65;;;8.60;52.40;;;;;;5020371;28;20034;-79
2022/04/01 13:33:31;;;;;;;8.77;3.55;;;9.20;52.40;;;;;;4973940;28;20037;-78
2022/04/01 13:35:57;;;;;;;5.13;2.53;;;9.70;50.80;;;;;;5022488;28;20109;-78
2022/04/01 13:38:23;;;;;;;7.70;2.30;;;9.90;47.40;;;;;;5018770;28;20118;-78
2022/04/01 13:40:49;;;;;;;7.20;2.45;;;9.70;47.30;;;;;;5018495;28;20022;-78